Time;durP1;ratioP1;P1;durP2;ratioP2;P2;SDS_P1;SDS_P2;PMS_P1;PMS_P2;Temp;Humidity;BMP_temperature;BMP_pressure;BME280_temperature;BME280_humidity;BME280_pressure;Samples;Min_cycle;Max_cycle;Signal;HPM_P1;HPM_P2
2021/05/16 03:33:17;;;;;;;2.23;1.60;;;;;;;15.10;56.74;97747.06;7039955;23;20668;-81
2021/05/16 03:36:38;;;;;;;3.50;1.70;;;;;;;15.36;56.33;97754.38;6919822;28;20256;-81
2021/05/16 03:39:59;;;;;;;2.50;1.50;;;;;;;15.42;55.12;97771.50;6925740;28;20695;-81
2021/05/16 03:43:22;;;;;;;3.87;2.20;;;;;;;15.33;56.00;97754.09;6954709;28;20241;-80
2021/05/16 03:46:43;;;;;;;2.60;1.90;;;;;;;15.84;54.21;97754.13;6955245;28;20665;-80
2021/05/16 03:50:07;;;;;;;2.27;1.80;;;;;;;15.88;54.68;97762.56;6955083;28;20217;-80
2021/05/16 03:53:28;;;;;;;3.70;1.90;;;;;;;15.76;55.45;97761.97;6940181;28;20226;-80
2021/05/16 03:56:49;;;;;;;5.63;2.10;;;;;;;15.89;55.52;97756.06;6927859;28;20211;-81
2021/05/16 04:00:11;;;;;;;3.23;1.90;;;;;;;15.71;56.39;97749.19;6927624;28;20224;-81
2021/05/16 04:03:33;;;;;;;4.47;2.63;;;;;;;15.78;56.75;97762.50;6927108;28;20216;-80
2021/05/16 04:06:54;;;;;;;3.97;2.10;;;;;;;15.69;57.34;97755.94;6927340;28;20216;-80
2021/05/16 04:10:16;;;;;;;2.87;2.10;;;;;;;15.60;56.78;97766.50;6934242;28;20210;-80
2021/05/16 04:13:37;;;;;;;3.43;1.90;;;;;;;15.64;56.09;97753.19;6936450;28;20215;-80
2021/05/16 04:16:58;;;;;;;2.53;1.70;;;;;;;15.44;56.07;97755.75;6931004;28;20260;-80
2021/05/16 04:20:19;;;;;;;6.27;1.90;;;;;;;15.38;55.42;97748.66;6919344;28;20230;-81
2021/05/16 04:23:41;;;;;;;2.13;1.97;;;;;;;15.68;55.43;97762.47;6925130;28;20195;-81
2021/05/16 04:27:03;;;;;;;5.50;2.20;;;;;;;15.55;57.57;97776.50;6924425;28;20206;-81
2021/05/16 04:30:24;;;;;;;3.33;1.97;;;;;;;15.03;58.54;97783.63;6922815;28;20201;-81
2021/05/16 04:33:45;;;;;;;4.83;2.50;;;;;;;15.37;56.72;97775.03;6921979;28;20214;-80
2021/05/16 04:37:06;;;;;;;3.47;1.90;;;;;;;15.40;57.12;97785.34;6923996;28;20659;-81
2021/05/16 04:40:28;;;;;;;4.43;1.60;;;;;;;15.61;55.97;97778.16;6923710;28;20237;-81
2021/05/16 04:43:49;;;;;;;3.83;1.70;;;;;;;14.83;57.53;97773.44;6923775;28;20574;-81
2021/05/16 04:47:10;;;;;;;2.73;1.97;;;;;;;15.14;57.42;97785.38;6924061;28;20556;-81
2021/05/16 04:50:31;;;;;;;2.70;1.80;;;;;;;15.43;55.26;97765.81;6923223;28;20240;-81
2021/05/16 04:53:53;;;;;;;1.97;1.63;;;;;;;15.62;55.38;97764.31;6923817;28;20283;-79
2021/05/16 04:57:15;;;;;;;2.90;2.13;;;;;;;15.78;55.86;97779.66;6923590;28;20208;-81
2021/05/16 05:00:36;;;;;;;2.37;1.60;;;;;;;15.15;56.35;97765.31;6917501;28;20282;-80
2021/05/16 05:03:57;;;;;;;2.60;1.80;;;;;;;15.32;56.02;97772.25;6922848;28;20224;-81
2021/05/16 05:07:18;;;;;;;1.90;1.80;;;;;;;15.53;55.68;97765.91;6923245;28;20204;-78
2021/05/16 05:10:39;;;;;;;4.03;2.17;;;;;;;15.82;55.87;97777.22;6922243;28;20234;-82
2021/05/16 05:14:01;;;;;;;3.10;2.23;;;;;;;15.90;54.81;97780.25;6924036;28;20211;-80
2021/05/16 05:17:22;;;;;;;1.70;1.60;;;;;;;16.04;54.51;97775.16;6922028;28;20212;-80
2021/05/16 05:20:44;;;;;;;1.93;1.70;;;;;;;16.11;54.38;97779.25;6922869;28;20262;-80
2021/05/16 05:24:06;;;;;;;3.40;1.60;;;;;;;16.18;53.44;97779.88;6950026;28;20203;-80
2021/05/16 05:27:27;;;;;;;1.80;1.70;;;;;;;15.97;55.13;97791.72;6948858;28;20214;-80
2021/05/16 05:30:49;;;;;;;2.87;1.80;;;;;;;16.16;54.65;97779.28;6947335;28;20239;-80
2021/05/16 05:34:10;;;;;;;1.63;1.50;;;;;;;15.92;55.11;97777.28;6949280;28;20209;-79
2021/05/16 05:37:31;;;;;;;1.47;1.37;;;;;;;15.96;54.41;97773.78;6949084;28;20209;-79
2021/05/16 05:40:53;;;;;;;1.93;1.77;;;;;;;15.44;56.93;97788.34;6948523;28;20691;-80
2021/05/16 05:44:15;;;;;;;2.33;1.57;;;;;;;15.31;56.17;97764.34;6949164;28;20199;-79
2021/05/16 05:47:37;;;;;;;2.80;2.57;;;;;;;15.68;56.37;97786.94;6949053;28;20217;-80
2021/05/16 05:50:59;;;;;;;1.40;1.30;;;;;;;15.65;55.92;97771.97;6948382;28;20227;-80
2021/05/16 05:54:20;;;;;;;1.30;1.27;;;;;;;15.17;57.13;97780.25;6948857;28;20211;-79
2021/05/16 05:57:41;;;;;;;1.50;1.40;;;;;;;15.61;56.44;97789.84;6928779;28;20204;-79
2021/05/16 06:01:03;;;;;;;1.43;1.33;;;;;;;15.35;58.04;97793.47;6920930;28;20761;-80
2021/05/16 06:04:25;;;;;;;2.33;1.60;;;;;;;15.30;57.68;97787.16;6933737;28;20264;-79
2021/05/16 06:07:46;;;;;;;3.10;1.43;;;;;;;15.74;57.27;97794.84;6949012;28;20215;-79
2021/05/16 06:11:07;;;;;;;2.83;1.40;;;;;;;16.04;56.60;97791.50;6939631;28;20222;-79
2021/05/16 06:14:28;;;;;;;2.30;1.40;;;;;;;16.24;55.02;97775.25;6923587;28;20697;-80
2021/05/16 06:17:49;;;;;;;1.83;1.73;;;;;;;16.44;54.98;97786.22;6921480;28;20210;-80
2021/05/16 06:21:11;;;;;;;1.60;1.40;;;;;;;16.19;54.96;97800.53;6920532;28;20718;-78
2021/05/16 06:24:32;;;;;;;1.23;1.20;;;;;;;15.70;56.07;97782.03;6920615;28;20218;-79
2021/05/16 06:27:56;;;;;;;1.50;1.40;;;;;;;15.95;55.58;97798.50;6921191;28;20203;-79
2021/05/16 06:31:17;;;;;;;2.83;1.80;;;;;;;15.73;56.76;97776.91;6918907;28;20228;-79
2021/05/16 06:34:38;;;;;;;1.80;1.50;;;;;;;16.16;56.09;97787.44;6931192;28;20651;-79
2021/05/16 06:38:00;;;;;;;3.70;1.63;;;;;;;17.05;54.25;97799.72;6912816;28;20246;-80
2021/05/16 06:41:22;;;;;;;2.03;1.30;;;;;;;17.29;53.66;97787.22;6930240;28;20723;-78
2021/05/16 06:44:43;;;;;;;2.63;2.30;;;;;;;16.96;53.14;97778.75;6914826;28;20215;-79
2021/05/16 06:48:05;;;;;;;1.97;1.50;;;;;;;16.69;52.38;97762.63;6920124;28;20203;-81
2021/05/16 06:51:26;;;;;;;3.40;1.30;;;;;;;17.07;51.71;97794.84;6920885;28;20226;-79
2021/05/16 06:54:48;;;;;;;1.50;1.20;;;;;;;17.39;52.19;97792.69;6920698;28;20265;-79
2021/05/16 06:58:10;;;;;;;2.63;1.30;;;;;;;17.91;50.33;97795.91;6920654;28;20208;-78
2021/05/16 07:01:31;;;;;;;2.17;1.40;;;;;;;17.94;50.18;97794.56;6919718;28;20239;-80
2021/05/16 07:04:52;;;;;;;2.80;1.50;;;;;;;18.27;49.48;97802.09;6920503;28;20378;-79
2021/05/16 07:08:13;;;;;;;4.90;1.60;;;;;;;18.61;47.61;97787.50;6920937;28;20212;-77
2021/05/16 07:11:35;;;;;;;2.33;1.40;;;;;;;17.70;51.40;97794.31;6921664;28;20470;-78
2021/05/16 07:14:56;;;;;;;2.00;1.47;;;;;;;18.58;48.69;97795.44;6951391;28;20291;-79
2021/05/16 07:18:17;;;;;;;2.77;1.20;;;;;;;18.96;48.43;97795.50;6953624;28;20203;-79
2021/05/16 07:21:38;;;;;;;2.93;1.60;;;;;;;19.44;47.60;97780.97;6955122;28;20223;-80
2021/05/16 07:24:59;;;;;;;1.30;1.20;;;;;;;19.61;46.14;97778.63;6944243;28;20619;-83
2021/05/16 07:28:21;;;;;;;2.10;1.17;;;;;;;18.79;46.31;97773.22;6926866;28;20215;-80
2021/05/16 07:31:44;;;;;;;2.20;1.20;;;;;;;18.45;48.37;97774.22;6938298;28;20638;-79
2021/05/16 07:35:06;;;;;;;1.13;1.10;;;;;;;18.47;47.68;97777.47;6953816;28;20195;-79
2021/05/16 07:38:27;;;;;;;2.03;1.40;;;;;;;17.75;47.88;97768.97;6939204;28;20265;-80
2021/05/16 07:41:50;;;;;;;1.50;1.20;;;;;;;18.26;47.85;97792.25;6939543;28;20223;-79
2021/05/16 07:45:14;;;;;;;1.40;1.30;;;;;;;18.67;46.18;97761.00;6938223;28;20208;-79
2021/05/16 07:48:35;;;;;;;1.47;1.20;;;;;;;18.29;48.40;97770.69;6917518;28;20203;-79
2021/05/16 07:51:56;;;;;;;2.07;1.30;;;;;;;17.98;47.61;97765.66;6934519;28;20856;-79
2021/05/16 07:55:17;;;;;;;1.40;1.30;;;;;;;17.87;48.11;97775.75;6925364;28;20211;-79
2021/05/16 07:58:38;;;;;;;1.20;1.10;;;;;;;18.11;47.22;97776.75;6917271;28;20253;-78
2021/05/16 08:02:00;;;;;;;4.07;1.23;;;;;;;18.14;46.41;97762.56;6941870;28;20224;-80
2021/05/16 08:05:21;;;;;;;2.07;1.30;;;;;;;19.09;46.35;97773.00;6957604;28;20569;-79
2021/05/16 08:08:42;;;;;;;2.80;1.30;;;;;;;18.77;45.03;97782.78;6925201;28;20208;-80
2021/05/16 08:12:04;;;;;;;1.37;1.27;;;;;;;18.43;45.49;97785.41;6911471;28;20261;-80
2021/05/16 08:15:25;;;;;;;1.90;1.20;;;;;;;18.76;44.24;97775.69;6899934;28;20204;-80
2021/05/16 08:18:50;;;;;;;2.60;1.53;;;;;;;19.08;43.89;97776.84;6925428;28;20211;-80
2021/05/16 08:22:11;;;;;;;1.20;1.07;;;;;;;18.78;44.38;97774.31;6924313;28;20708;-82
2021/05/16 08:26:10;;;;;;;1.50;1.20;;;;;;;18.62;46.12;97782.84;6924600;28;20216;-80
2021/05/16 08:29:31;;;;;;;3.00;1.40;;;;;;;17.01;48.10;97792.38;6926439;28;20672;-80
2021/05/16 08:32:52;;;;;;;4.17;2.07;;;;;;;16.08;52.25;97798.84;6924859;28;20235;-80
2021/05/16 08:36:14;;;;;;;3.60;1.57;;;;;;;16.02;53.33;97837.13;6925761;28;20214;-80
2021/05/16 08:39:35;;;;;;;2.23;1.93;;;;;;;15.45;51.50;97793.53;6924859;28;20234;-81
2021/05/16 08:42:57;;;;;;;3.17;1.60;;;;;;;15.65;52.21;97792.88;6922236;28;20226;-80
2021/05/16 08:46:18;;;;;;;1.33;1.23;;;;;;;16.32;49.50;97772.00;6923640;28;20242;-79
2021/05/16 08:49:39;;;;;;;3.00;1.60;;;;;;;16.62;50.55;97786.56;6945336;28;20686;-83
2021/05/16 08:53:02;;;;;;;1.43;1.30;;;;;;;17.15;51.21;97790.78;6950992;28;20574;-82
2021/05/16 08:56:23;;;;;;;1.73;1.37;;;;;;;18.30;50.57;97763.34;6951611;28;20215;-82
2021/05/16 09:00:08;;;;;;;3.73;1.53;;;;;;;19.67;44.78;97771.19;6952070;28;20207;-81
2021/05/16 09:03:29;;;;;;;1.87;1.67;;;;;;;19.27;47.87;97750.50;6951679;28;20228;-81
2021/05/16 09:06:54;;;;;;;2.10;1.33;;;;;;;20.14;45.53;97766.63;6952508;28;20631;-79
2021/05/16 09:10:24;;;;;;;2.30;1.13;;;;;;;20.37;42.88;97754.03;6949376;28;20222;-80
2021/05/16 09:13:51;;;;;;;2.80;1.67;;;;;;;20.19;45.55;97760.28;6927901;28;20211;-80
2021/05/16 09:17:29;;;;;;;1.83;1.30;;;;;;;20.62;44.65;97750.94;6950350;28;20219;-80
2021/05/16 09:20:50;;;;;;;3.10;1.50;;;;;;;20.94;44.95;97751.88;6949695;28;20232;-79
2021/05/16 09:24:15;;;;;;;2.63;1.60;;;;;;;21.77;42.12;97714.34;6951047;28;20202;-79
2021/05/16 09:27:37;;;;;;;1.93;1.70;;;;;;;21.63;44.34;97725.25;6951456;28;20204;-80
2021/05/16 09:30:58;;;;;;;3.33;1.70;;;;;;;21.87;42.72;97727.84;6951789;28;20236;-79
2021/05/16 09:34:20;;;;;;;4.57;1.63;;;;;;;21.95;43.02;97746.38;6963170;28;20209;-81
2021/05/16 09:37:55;;;;;;;2.97;1.97;;;;;;;22.95;38.09;97736.03;6959741;28;20215;-78
2021/05/16 09:41:19;;;;;;;3.93;1.97;;;;;;;22.42;39.09;97738.53;6927320;28;20230;-79
2021/05/16 09:44:42;;;;;;;5.67;2.13;;;;;;;22.82;38.36;97726.69;6923192;28;20677;-79
2021/05/16 09:48:17;;;;;;;5.17;1.87;;;;;;;22.70;38.47;97720.94;6923366;28;20214;-79
2021/05/16 09:51:38;;;;;;;4.87;1.70;;;;;;;22.53;35.51;97714.47;6922572;28;20275;-79
2021/05/16 09:55:03;;;;;;;4.40;2.53;;;;;;;22.52;34.95;97712.81;6923028;28;20216;-79
2021/05/16 09:58:24;;;;;;;3.23;1.80;;;;;;;22.55;34.48;97706.72;6923021;28;20218;-79
2021/05/16 10:01:46;;;;;;;3.63;1.80;;;;;;;22.01;35.03;97690.25;6922635;28;20241;-79
2021/05/16 10:05:10;;;;;;;3.23;1.80;;;;;;;22.37;33.42;97696.66;6934912;28;20253;-79
2021/05/16 10:08:31;;;;;;;2.90;1.80;;;;;;;21.70;35.19;97691.94;6922696;28;20188;-78
2021/05/16 10:11:52;;;;;;;3.80;1.73;;;;;;;21.98;35.20;97686.19;6922353;28;20285;-79
2021/05/16 10:15:15;;;;;;;2.73;1.63;;;;;;;23.09;34.81;97676.31;6922437;28;20219;-80
2021/05/16 10:18:37;;;;;;;2.43;1.53;;;;;;;23.63;32.54;97692.53;6921457;28;20210;-79
2021/05/16 10:22:13;;;;;;;4.13;1.80;;;;;;;22.94;32.50;97677.50;6923000;28;20239;-80
2021/05/16 10:25:42;;;;;;;2.73;1.70;;;;;;;23.27;30.90;97664.34;6924315;28;20204;-79
2021/05/16 10:29:05;;;;;;;3.53;1.80;;;;;;;22.38;32.25;97643.34;6926824;28;20293;-79
2021/05/16 10:32:32;;;;;;;3.80;1.83;;;;;;;22.52;31.72;97671.59;6923248;28;20235;-78
2021/05/16 10:35:54;;;;;;;4.10;1.83;;;;;;;23.09;31.26;97662.56;6927751;28;20686;-79
2021/05/16 10:39:48;;;;;;;2.63;1.67;;;;;;;23.71;30.85;97651.31;6925887;28;20221;-80
2021/05/16 10:43:24;;;;;;;2.53;1.57;;;;;;;23.48;30.55;97629.69;6921460;28;20234;-79
2021/05/16 10:46:46;;;;;;;3.87;1.83;;;;;;;23.50;30.88;97639.25;6916918;28;20266;-82
2021/05/16 10:50:07;;;;;;;3.47;1.77;;;;;;;23.17;30.83;97629.66;6902766;28;20209;-79
2021/05/16 10:53:38;;;;;;;2.20;1.63;;;;;;;22.96;30.59;97628.50;6918219;28;20227;-79
2021/05/16 10:57:12;;;;;;;3.00;1.90;;;;;;;23.19;30.53;97629.34;6909288;28;20207;-79
2021/05/16 11:00:36;;;;;;;2.10;1.50;;;;;;;22.45;30.29;97619.84;6925966;28;20235;-78
2021/05/16 11:03:58;;;;;;;3.07;1.67;;;;;;;23.30;29.98;97617.75;6926423;28;20593;-79
2021/05/16 11:07:32;;;;;;;2.10;1.43;;;;;;;23.33;28.84;97608.88;6920865;28;20222;-79
2021/05/16 11:10:55;;;;;;;2.80;1.40;;;;;;;23.33;29.31;97597.88;6925893;28;20227;-79
2021/05/16 11:14:18;;;;;;;3.97;2.00;;;;;;;23.09;29.40;97613.06;6926228;28;20835;-79
2021/05/16 11:17:39;;;;;;;4.43;2.20;;;;;;;23.07;30.37;97599.63;6926295;28;20210;-79
2021/05/16 11:21:02;;;;;;;5.70;1.90;;;;;;;24.03;29.87;97597.84;6911073;28;20239;-79
2021/05/16 11:24:48;;;;;;;3.40;1.70;;;;;;;25.04;27.34;97577.81;6899867;28;20218;-79
2021/05/16 11:28:10;;;;;;;5.17;1.90;;;;;;;25.50;27.22;97566.00;6920657;28;20218;-80
2021/05/16 11:31:33;;;;;;;2.37;1.30;;;;;;;24.84;28.79;97564.69;6925759;28;20767;-80
2021/05/16 11:35:13;;;;;;;5.37;1.70;;;;;;;24.78;27.77;97540.38;6926233;28;20686;-79
2021/05/16 11:38:35;;;;;;;3.43;1.50;;;;;;;24.67;26.07;97547.38;6926228;28;20209;-79
2021/05/16 11:41:57;;;;;;;1.93;1.20;;;;;;;25.01;27.47;97541.81;6926055;28;20240;-80
2021/05/16 11:45:19;;;;;;;2.53;1.37;;;;;;;25.03;26.71;97545.03;6927041;28;20233;-79
2021/05/16 11:48:41;;;;;;;5.23;1.50;;;;;;;25.54;26.78;97539.38;6926586;28;20212;-80
2021/05/16 11:52:03;;;;;;;4.23;2.10;;;;;;;24.99;25.55;97528.34;6926310;28;20266;-80
2021/05/16 11:55:24;;;;;;;2.90;1.30;;;;;;;24.32;27.67;97504.41;6927703;28;20214;-79
2021/05/16 11:58:52;;;;;;;3.10;1.70;;;;;;;24.43;26.94;97520.25;6927016;28;20207;-80
2021/05/16 12:02:15;;;;;;;4.97;2.43;;;;;;;24.55;28.41;97511.34;6925090;28;20532;-80
2021/05/16 12:05:36;;;;;;;2.87;1.50;;;;;;;25.40;28.13;97514.75;6926152;28;20663;-79
2021/05/16 12:09:01;;;;;;;4.13;1.40;;;;;;;24.70;28.20;97519.13;6925970;28;20219;-82
2021/05/16 12:12:25;;;;;;;2.70;1.30;;;;;;;25.44;27.61;97531.47;6926169;28;20232;-79
2021/05/16 12:15:46;;;;;;;2.03;1.27;;;;;;;25.07;28.33;97510.94;6925653;28;20208;-79
2021/05/16 12:19:08;;;;;;;3.70;1.70;;;;;;;23.43;29.44;97515.06;6906130;28;20246;-80
2021/05/16 12:22:34;;;;;;;7.43;4.87;;;;;;;23.76;29.82;97513.53;6898335;28;20236;-80
2021/05/16 12:25:55;;;;;;;3.03;1.90;;;;;;;23.64;28.93;97515.28;6900169;28;20195;-80
2021/05/16 12:29:18;;;;;;;38.67;22.33;;;;;;;23.51;28.20;97486.78;6903915;28;20216;-80
2021/05/16 12:32:39;;;;;;;4.10;1.83;;;;;;;23.96;27.00;97506.66;6906496;28;20235;-79
2021/05/16 12:36:01;;;;;;;3.47;1.30;;;;;;;24.57;27.22;97512.69;6901503;28;20211;-80
2021/05/16 12:39:41;;;;;;;4.33;1.57;;;;;;;24.42;29.32;97504.06;6900975;28;20734;-80
2021/05/16 12:43:03;;;;;;;1.50;1.10;;;;;;;24.34;28.23;97515.91;6900008;28;20238;-79
2021/05/16 12:46:40;;;;;;;2.10;1.50;;;;;;;23.20;29.53;97513.50;6899609;28;20212;-79
2021/05/16 12:50:03;;;;;;;3.47;1.87;;;;;;;23.30;28.51;97515.19;6899938;28;20215;-80
2021/05/16 12:53:28;;;;;;;2.93;1.67;;;;;;;23.26;29.03;97497.69;6901390;28;20252;-80
2021/05/16 12:57:02;;;;;;;2.37;1.47;;;;;;;23.90;29.30;97488.66;6899285;28;20196;-79
2021/05/16 13:00:31;;;;;;;4.93;1.60;;;;;;;24.97;28.53;97488.44;6898657;28;20198;-79
2021/05/16 13:03:54;;;;;;;9.67;7.30;;;;;;;24.44;27.85;97482.50;6898851;28;20204;-79
2021/05/16 13:07:37;;;;;;;3.60;1.70;;;;;;;23.69;27.83;97491.19;6899094;28;20305;-80
2021/05/16 13:11:01;;;;;;;2.33;1.23;;;;;;;23.72;28.53;97481.47;6898443;28;20234;-80
2021/05/16 13:14:26;;;;;;;6.83;1.40;;;;;;;23.33;28.55;97482.34;6898452;28;20213;-80
2021/05/16 13:17:47;;;;;;;2.67;1.50;;;;;;;22.91;28.61;97482.13;6898584;28;20204;-80
2021/05/16 13:21:31;;;;;;;3.07;1.60;;;;;;;23.36;27.87;97489.94;6898114;28;20233;-79
2021/05/16 13:24:52;;;;;;;4.67;2.87;;;;;;;23.29;29.40;97495.13;6898060;28;20242;-79
2021/05/16 13:28:19;;;;;;;4.17;1.87;;;;;;;22.79;30.64;97499.22;6897567;28;20224;-79
2021/05/16 13:31:41;;;;;;;4.97;1.43;;;;;;;22.53;32.05;97506.47;6895747;28;20280;-79
2021/05/16 13:35:03;;;;;;;3.53;1.57;;;;;;;22.11;33.97;97506.09;6897033;28;20205;-79
2021/05/16 13:38:25;;;;;;;1.93;1.73;;;;;;;20.70;37.03;97501.06;6896841;28;20657;-79
2021/05/16 13:41:46;;;;;;;1.93;1.30;;;;;;;20.74;37.01;97496.59;6894996;28;20285;-79
2021/05/16 13:45:10;;;;;;;3.17;1.80;;;;;;;21.01;36.88;97489.25;6902734;28;20241;-80
2021/05/16 13:48:33;;;;;;;3.30;1.67;;;;;;;21.19;37.14;97480.91;6899049;28;20216;-79
2021/05/16 13:51:54;;;;;;;2.53;1.60;;;;;;;21.53;36.03;97456.63;6893606;28;20257;-79
2021/05/16 13:55:15;;;;;;;3.83;1.60;;;;;;;22.30;35.29;97457.34;6893948;28;20848;-78
2021/05/16 13:58:36;;;;;;;2.87;1.90;;;;;;;21.95;34.72;97464.47;6895586;28;20217;-83
2021/05/16 14:01:58;;;;;;;3.40;1.40;;;;;;;21.55;34.68;97448.91;6896645;28;20229;-80
2021/05/16 14:05:19;;;;;;;4.17;1.53;;;;;;;21.27;36.00;97458.31;6894485;28;20219;-78
2021/05/16 14:08:41;;;;;;;3.00;1.63;;;;;;;21.37;35.81;97443.56;6894262;28;20210;-80
2021/05/16 14:12:02;;;;;;;2.83;1.50;;;;;;;21.69;35.62;97459.88;6893083;28;20230;-79
2021/05/16 14:15:24;;;;;;;3.93;1.77;;;;;;;21.88;35.75;97441.31;6893655;28;20221;-80
2021/05/16 14:18:46;;;;;;;4.20;1.90;;;;;;;22.07;34.96;97470.22;6894438;28;20659;-80
2021/05/16 14:22:07;;;;;;;1.70;1.43;;;;;;;21.81;35.35;97498.56;6893750;28;20239;-80
2021/05/16 14:25:28;;;;;;;3.87;1.70;;;;;;;21.41;38.10;97533.13;6893894;28;20219;-78
2021/05/16 14:28:49;;;;;;;4.30;1.93;;;;;;;21.03;40.18;97530.88;6894078;28;20209;-79
2021/05/16 14:32:10;;;;;;;4.37;1.80;;;;;;;21.33;40.29;97528.38;6892159;28;20239;-79
2021/05/16 14:35:33;;;;;;;1.80;1.70;;;;;;;21.02;40.82;97519.09;6894310;28;20192;-79
2021/05/16 14:38:54;;;;;;;4.90;1.83;;;;;;;20.24;41.28;97502.91;6894163;28;20212;-79
2021/05/16 14:42:15;;;;;;;2.37;1.80;;;;;;;20.15;41.09;97474.59;6893604;28;20232;-79
2021/05/16 14:45:36;;;;;;;2.60;1.63;;;;;;;20.70;40.80;97440.78;6894026;28;20213;-79
2021/05/16 14:48:57;;;;;;;2.67;1.80;;;;;;;21.73;38.06;97447.97;6893956;28;20208;-79
2021/05/16 14:52:19;;;;;;;4.20;1.43;;;;;;;21.46;38.87;97450.75;6893914;28;20777;-79
2021/05/16 14:55:41;;;;;;;15.37;12.67;;;;;;;21.73;37.59;97480.09;6906025;28;20208;-79
2021/05/16 14:59:03;;;;;;;6.80;2.30;;;;;;;22.34;37.21;97491.28;6906745;28;20200;-79
2021/05/16 15:02:25;;;;;;;3.53;2.13;;;;;;;22.05;38.03;97488.94;6894402;28;20230;-79
2021/05/16 15:05:46;;;;;;;3.50;1.63;;;;;;;21.91;35.99;97482.72;6894086;28;20648;-79
2021/05/16 15:09:08;;;;;;;2.50;1.53;;;;;;;21.34;37.57;97488.03;6894343;28;20605;-78
2021/05/16 15:12:29;;;;;;;1.90;1.50;;;;;;;21.98;36.55;97463.88;6900816;28;20275;-79
2021/05/16 15:15:50;;;;;;;3.97;1.40;;;;;;;21.28;37.96;97456.34;6904811;28;20214;-79
2021/05/16 15:19:14;;;;;;;4.53;1.63;;;;;;;20.98;37.92;97448.75;6902433;28;20219;-80
2021/05/16 15:22:35;;;;;;;2.17;1.10;;;;;;;20.87;38.05;97449.22;6893451;28;20235;-79
2021/05/16 15:25:57;;;;;;;2.17;1.37;;;;;;;20.97;38.24;97451.78;6894593;28;20209;-81
2021/05/16 15:29:18;;;;;;;4.03;2.40;;;;;;;;;;6895345;28;20222;-80
2021/05/16 15:32:39;;;;;;;2.00;1.70;;;;;;;21.30;37.24;97454.94;6894364;28;20233;-82
2021/05/16 15:36:01;;;;;;;3.80;2.03;;;;;;;21.93;37.31;97431.06;6897601;28;20575;-79
2021/05/16 15:39:22;;;;;;;1.07;1.07;;;;;;;22.56;34.72;97411.63;6898421;28;20216;-79
2021/05/16 15:42:45;;;;;;;1.50;1.20;;;;;;;22.72;35.33;97445.81;6896838;28;20237;-79
2021/05/16 15:46:06;;;;;;;2.10;1.30;;;;;;;21.22;37.71;97446.59;6901020;28;20206;-78
2021/05/16 15:49:27;;;;;;;2.20;1.40;;;;;;;21.07;37.37;97416.78;6901032;28;20220;-80
2021/05/16 15:52:50;;;;;;;3.17;1.67;;;;;;;21.00;38.13;97454.75;6900220;28;20228;-79
2021/05/16 15:56:11;;;;;;;2.30;1.30;;;;;;;20.80;38.34;97443.34;6900768;28;20292;-79
2021/05/16 15:59:33;;;;;;;1.90;1.20;;;;;;;20.54;38.94;97451.22;6899392;28;20216;-80
2021/05/16 16:02:55;;;;;;;2.10;1.13;;;;;;;21.01;38.48;97450.91;6899818;28;20243;-80
2021/05/16 16:06:17;;;;;;;1.20;1.10;;;;;;;21.60;37.47;97437.03;6900003;28;20204;-80
2021/05/16 16:09:40;;;;;;;1.47;1.10;;;;;;;21.67;36.53;97434.69;6900150;28;20208;-81
2021/05/16 16:13:01;;;;;;;1.13;1.03;;;;;;;21.68;35.50;97434.38;6898488;28;20230;-80
2021/05/16 16:16:23;;;;;;;1.87;1.07;;;;;;;21.67;34.63;97420.97;6899714;28;20263;-79
2021/05/16 16:19:45;;;;;;;1.37;0.70;;;;;;;21.90;35.25;97417.94;6899230;28;20214;-79
2021/05/16 16:23:07;;;;;;;1.10;0.87;;;;;;;21.98;35.34;97410.91;6923183;28;20241;-78
2021/05/16 16:26:28;;;;;;;1.33;0.90;;;;;;;21.94;34.61;97410.72;6925809;28;20214;-81
2021/05/16 16:29:49;;;;;;;1.00;0.87;;;;;;;21.52;34.96;97396.59;6933640;28;20584;-79
2021/05/16 16:33:11;;;;;;;0.97;0.90;;;;;;;21.39;34.64;97392.78;6952879;28;20240;-81
2021/05/16 16:36:32;;;;;;;1.13;0.97;;;;;;;21.34;35.25;97401.13;6954607;28;20665;-80
2021/05/16 16:39:53;;;;;;;1.00;0.80;;;;;;;20.56;35.96;97366.00;6952967;28;20215;-79
2021/05/16 16:43:15;;;;;;;0.70;0.70;;;;;;;21.35;34.70;97386.28;6953383;28;20231;-80
2021/05/16 16:46:36;;;;;;;1.00;0.90;;;;;;;20.60;35.56;97378.81;6953377;28;20226;-79
2021/05/16 16:49:58;;;;;;;0.90;0.90;;;;;;;20.77;35.75;97346.16;6952766;28;20208;-80
2021/05/16 16:53:19;;;;;;;0.83;0.70;;;;;;;21.03;35.14;97380.16;6946745;28;20234;-80
2021/05/16 16:56:40;;;;;;;2.20;0.93;;;;;;;20.67;36.04;97376.47;6927617;28;20207;-80
2021/05/16 17:00:01;;;;;;;1.40;0.70;;;;;;;20.74;35.79;97379.59;6926185;28;20725;-80
2021/05/16 17:03:23;;;;;;;0.87;0.80;;;;;;;21.23;34.95;97360.50;6924852;28;20286;-79
2021/05/16 17:06:45;;;;;;;0.80;0.80;;;;;;;21.81;33.77;97358.63;6925191;28;20270;-81
2021/05/16 17:10:07;;;;;;;0.80;0.80;;;;;;;21.03;34.52;97366.44;6925775;28;20217;-79
2021/05/16 17:13:28;;;;;;;1.27;0.90;;;;;;;20.46;36.14;97388.91;6925858;28;20292;-80
2021/05/16 17:16:49;;;;;;;0.93;0.87;;;;;;;20.39;36.58;97398.66;6925836;28;20208;-80
2021/05/16 17:20:12;;;;;;;1.57;0.70;;;;;;;21.02;35.78;97394.13;6925713;28;20207;-80
2021/05/16 17:23:34;;;;;;;0.80;0.80;;;;;;;20.84;36.09;97371.19;6925348;28;20236;-80
2021/05/16 17:26:55;;;;;;;0.90;0.90;;;;;;;20.65;36.22;97380.63;6924238;28;20212;-80
2021/05/16 17:30:17;;;;;;;1.27;1.07;;;;;;;20.01;37.16;97372.47;6924088;28;20212;-80
2021/05/16 17:33:38;;;;;;;0.60;0.60;;;;;;;20.48;37.18;97394.91;6924924;28;20215;-80
2021/05/16 17:37:01;;;;;;;0.77;0.77;;;;;;;19.89;37.19;97392.09;6925421;28;20244;-80
2021/05/16 17:40:23;;;;;;;0.80;0.80;;;;;;;19.65;38.58;97394.13;6925570;28;20206;-79
2021/05/16 17:43:45;;;;;;;1.63;0.73;;;;;;;19.71;38.17;97384.75;6926045;28;20267;-80
2021/05/16 17:47:06;;;;;;;1.30;0.97;;;;;;;19.33;38.01;97349.53;6925491;28;20220;-80
2021/05/16 17:50:27;;;;;;;2.37;0.83;;;;;;;19.25;38.70;97359.19;6925218;28;20212;-79
2021/05/16 17:53:49;;;;;;;0.60;0.60;;;;;;;19.81;38.18;97417.38;6925369;28;20678;-78
2021/05/16 17:57:11;;;;;;;1.87;0.90;;;;;;;19.45;38.59;97424.47;6924684;28;20205;-80
2021/05/16 18:00:33;;;;;;;0.87;0.87;;;;;;;19.11;39.59;97404.69;6924322;28;20299;-79
2021/05/16 18:03:54;;;;;;;1.00;0.97;;;;;;;19.16;39.72;97387.44;6924978;28;20243;-80
2021/05/16 18:07:15;;;;;;;0.63;0.63;;;;;;;19.24;39.30;97403.19;6924353;28;20200;-79
2021/05/16 18:10:37;;;;;;;0.80;0.80;;;;;;;19.11;39.43;97414.81;6923486;28;20238;-79
2021/05/16 18:13:59;;;;;;;2.20;1.03;;;;;;;19.09;39.28;97425.22;6925025;28;20204;-80
2021/05/16 18:17:21;;;;;;;0.70;0.70;;;;;;;19.11;39.28;97414.81;6924637;28;20211;-80
2021/05/16 18:20:49;;;;;;;0.73;0.73;;;;;;;19.86;37.96;97421.97;6922353;28;20246;-79
2021/05/16 18:24:11;;;;;;;0.73;0.73;;;;;;;19.96;37.97;97443.69;6910418;28;20205;-78
2021/05/16 18:27:32;;;;;;;0.80;0.80;;;;;;;19.59;38.52;97419.09;6909821;28;20262;-80
2021/05/16 18:30:54;;;;;;;0.80;0.80;;;;;;;19.84;38.29;97430.47;6923538;28;20254;-80
2021/05/16 18:34:15;;;;;;;0.70;0.70;;;;;;;19.61;38.48;97428.63;6924026;28;20576;-79
2021/05/16 18:37:37;;;;;;;0.80;0.80;;;;;;;20.14;38.00;97420.97;6927659;28;20590;-80
2021/05/16 18:40:58;;;;;;;0.60;0.60;;;;;;;19.44;39.00;97424.78;6907448;28;20224;-79
2021/05/16 18:44:19;;;;;;;1.00;1.00;;;;;;;19.77;39.23;97421.00;6904679;28;20220;-79
2021/05/16 18:47:41;;;;;;;0.80;0.80;;;;;;;18.89;40.27;97417.28;6923601;28;20234;-79
2021/05/16 18:51:05;;;;;;;0.70;0.70;;;;;;;18.60;41.38;97419.25;6922326;28;20697;-79
2021/05/16 18:54:33;;;;;;;0.67;0.67;;;;;;;17.56;43.67;97416.31;6911828;28;20218;-78
2021/05/16 18:57:54;;;;;;;0.80;0.80;;;;;;;18.86;41.69;97437.78;6898729;28;20212;-79
2021/05/16 19:01:15;;;;;;;0.70;0.70;;;;;;;18.93;41.33;97431.97;6896858;28;20240;-79
2021/05/16 19:04:37;;;;;;;0.80;0.80;;;;;;;18.73;41.76;97429.47;6897230;28;20255;-79
2021/05/16 19:08:00;;;;;;;0.73;0.73;;;;;;;18.57;42.05;97430.75;6897966;28;20219;-79
2021/05/16 19:11:21;;;;;;;1.10;1.10;;;;;;;19.13;41.33;97429.81;6908679;28;20241;-79
2021/05/16 19:14:42;;;;;;;1.23;1.17;;;;;;;19.33;41.30;97434.25;6957185;28;20207;-79
2021/05/16 19:18:04;;;;;;;1.23;0.80;;;;;;;18.85;42.42;97438.91;6957092;28;20210;-78
2021/05/16 19:21:26;;;;;;;2.93;1.40;;;;;;;18.34;43.02;97415.97;6957818;28;20235;-79
2021/05/16 19:24:47;;;;;;;0.97;0.97;;;;;;;18.85;42.76;97451.72;6961345;28;20214;-79
2021/05/16 19:28:08;;;;;;;0.83;0.83;;;;;;;18.73;43.09;97456.78;6946867;28;20215;-78